Resolute, Canada
Current Conditions -  °F | °C
As of 10:00 PM on Sunday 25 Jan 2015 (Local Time) from CYRB Reporting Station
Ice Pellets Ice Pellets  
Wind Chill: -29°   Ceiling: Unl
Heat Index: -29°   Visibility: 15mi
Dew Point: -36°   Wind: 2mph
Humidity: 68%   Direction: 140°SE
Pressure: 29.56"   Gusts: NA
Location:  74.69°N, 94.91°W
Report Text: CYRB 260400Z 14002KT 15SM IC FEW024 M34/M38 A2956 RMK SC1 SC TR WND ESTD SLP022
Loading
Personal Weather Stations






























Interactive Weather Map New forecast layout! Learn more

10-Day Weather Forecast

Advertisements
Track Severe Weather on mobile